sensor_id;sensor_type;location;lat;lon;timestamp;temperature;humidity
9118;DHT22;4594;50.994;7.126;2023-11-21T00:01:57;11.20;60.90
9118;DHT22;4594;50.994;7.126;2023-11-21T00:04:24;11.30;61.00
9118;DHT22;4594;50.994;7.126;2023-11-21T00:06:50;11.20;60.90
9118;DHT22;4594;50.994;7.126;2023-11-21T00:09:16;11.10;60.80
9118;DHT22;4594;50.994;7.126;2023-11-21T00:11:43;11.20;61.10
9118;DHT22;4594;50.994;7.126;2023-11-21T00:14:10;11.10;61.10
9118;DHT22;4594;50.994;7.126;2023-11-21T00:16:36;11.10;61.20
9118;DHT22;4594;50.994;7.126;2023-11-21T00:19:02;11.10;61.30
9118;DHT22;4594;50.994;7.126;2023-11-21T00:21:28;11.10;61.30
9118;DHT22;4594;50.994;7.126;2023-11-21T00:23:54;11.10;61.30
9118;DHT22;4594;50.994;7.126;2023-11-21T00:26:19;11.00;61.20
9118;DHT22;4594;50.994;7.126;2023-11-21T00:28:45;11.10;61.40
9118;DHT22;4594;50.994;7.126;2023-11-21T00:31:11;11.10;61.50
9118;DHT22;4594;50.994;7.126;2023-11-21T00:33:36;11.10;61.60
9118;DHT22;4594;50.994;7.126;2023-11-21T00:36:02;11.10;61.70
9118;DHT22;4594;50.994;7.126;2023-11-21T00:38:28;11.00;61.60
9118;DHT22;4594;50.994;7.126;2023-11-21T00:40:54;11.00;61.50
9118;DHT22;4594;50.994;7.126;2023-11-21T00:43:24;11.00;61.50
9118;DHT22;4594;50.994;7.126;2023-11-21T00:45:50;11.00;61.30
9118;DHT22;4594;50.994;7.126;2023-11-21T00:48:16;11.00;61.70
9118;DHT22;4594;50.994;7.126;2023-11-21T00:50:43;11.00;61.60
9118;DHT22;4594;50.994;7.126;2023-11-21T00:53:09;11.10;61.70
9118;DHT22;4594;50.994;7.126;2023-11-21T00:55:36;11.00;61.50
9118;DHT22;4594;50.994;7.126;2023-11-21T00:58:05;11.00;61.60
9118;DHT22;4594;50.994;7.126;2023-11-21T01:00:33;11.00;61.60
9118;DHT22;4594;50.994;7.126;2023-11-21T01:02:59;11.00;61.60
9118;DHT22;4594;50.994;7.126;2023-11-21T01:05:25;11.00;61.50
9118;DHT22;4594;50.994;7.126;2023-11-21T01:07:52;11.00;61.60
9118;DHT22;4594;50.994;7.126;2023-11-21T01:10:18;10.90;61.50
9118;DHT22;4594;50.994;7.126;2023-11-21T01:12:44;10.90;61.30
9118;DHT22;4594;50.994;7.126;2023-11-21T01:15:09;10.90;61.20
9118;DHT22;4594;50.994;7.126;2023-11-21T01:17:37;11.00;61.20
9118;DHT22;4594;50.994;7.126;2023-11-21T01:20:04;10.90;61.00
9118;DHT22;4594;50.994;7.126;2023-11-21T01:22:36;10.90;60.80
9118;DHT22;4594;50.994;7.126;2023-11-21T01:25:02;10.90;60.70
9118;DHT22;4594;50.994;7.126;2023-11-21T01:27:29;10.80;60.80
9118;DHT22;4594;50.994;7.126;2023-11-21T01:29:55;10.80;60.90
9118;DHT22;4594;50.994;7.126;2023-11-21T01:32:21;10.80;61.00
9118;DHT22;4594;50.994;7.126;2023-11-21T01:34:47;10.80;61.10
9118;DHT22;4594;50.994;7.126;2023-11-21T01:37:15;10.80;61.00
9118;DHT22;4594;50.994;7.126;2023-11-21T01:39:43;10.90;61.10
9118;DHT22;4594;50.994;7.126;2023-11-21T01:42:09;10.80;60.90
9118;DHT22;4594;50.994;7.126;2023-11-21T01:44:36;10.70;60.50
9118;DHT22;4594;50.994;7.126;2023-11-21T01:47:02;10.70;60.50
9118;DHT22;4594;50.994;7.126;2023-11-21T01:49:31;10.70;60.60
9118;DHT22;4594;50.994;7.126;2023-11-21T01:51:59;10.70;60.70
9118;DHT22;4594;50.994;7.126;2023-11-21T01:54:25;10.70;60.70
9118;DHT22;4594;50.994;7.126;2023-11-21T01:56:51;10.70;60.70
9118;DHT22;4594;50.994;7.126;2023-11-21T01:59:20;10.60;60.60
9118;DHT22;4594;50.994;7.126;2023-11-21T02:01:47;10.60;60.10
9118;DHT22;4594;50.994;7.126;2023-11-21T02:04:13;10.60;60.20
9118;DHT22;4594;50.994;7.126;2023-11-21T02:06:39;10.70;60.00
9118;DHT22;4594;50.994;7.126;2023-11-21T02:09:05;10.60;59.60
9118;DHT22;4594;50.994;7.126;2023-11-21T02:11:31;10.50;59.30
9118;DHT22;4594;50.994;7.126;2023-11-21T02:13:59;10.70;59.20
9118;DHT22;4594;50.994;7.126;2023-11-21T02:16:26;10.40;58.90
9118;DHT22;4594;50.994;7.126;2023-11-21T02:18:52;10.70;59.00
9118;DHT22;4594;50.994;7.126;2023-11-21T02:21:18;10.30;58.60
9118;DHT22;4594;50.994;7.126;2023-11-21T02:23:46;10.30;58.70
9118;DHT22;4594;50.994;7.126;2023-11-21T02:26:13;10.20;58.80
9118;DHT22;4594;50.994;7.126;2023-11-21T02:28:39;10.20;59.00
9118;DHT22;4594;50.994;7.126;2023-11-21T02:31:05;10.10;59.10
9118;DHT22;4594;50.994;7.126;2023-11-21T02:33:33;10.10;59.30
9118;DHT22;4594;50.994;7.126;2023-11-21T02:36:02;10.10;59.50
9118;DHT22;4594;50.994;7.126;2023-11-21T02:38:29;10.10;59.40
9118;DHT22;4594;50.994;7.126;2023-11-21T02:40:57;10.00;59.80
9118;DHT22;4594;50.994;7.126;2023-11-21T02:43:24;10.00;60.30
9118;DHT22;4594;50.994;7.126;2023-11-21T02:45:50;10.20;60.40
9118;DHT22;4594;50.994;7.126;2023-11-21T02:48:16;10.00;60.50
9118;DHT22;4594;50.994;7.126;2023-11-21T02:50:41;10.10;60.80
9118;DHT22;4594;50.994;7.126;2023-11-21T02:53:08;10.10;61.00
9118;DHT22;4594;50.994;7.126;2023-11-21T02:55:36;10.10;61.20
9118;DHT22;4594;50.994;7.126;2023-11-21T02:58:02;10.10;61.30
9118;DHT22;4594;50.994;7.126;2023-11-21T03:00:31;10.10;61.40
9118;DHT22;4594;50.994;7.126;2023-11-21T03:02:57;10.30;61.80
9118;DHT22;4594;50.994;7.126;2023-11-21T03:05:23;10.20;61.70
9118;DHT22;4594;50.994;7.126;2023-11-21T03:07:48;10.20;61.70
9118;DHT22;4594;50.994;7.126;2023-11-21T03:10:14;10.20;61.80
9118;DHT22;4594;50.994;7.126;2023-11-21T03:12:40;10.20;61.80
9118;DHT22;4594;50.994;7.126;2023-11-21T03:15:09;10.20;61.80
9118;DHT22;4594;50.994;7.126;2023-11-21T03:17:35;10.30;61.60
9118;DHT22;4594;50.994;7.126;2023-11-21T03:20:01;10.30;62.00
9118;DHT22;4594;50.994;7.126;2023-11-21T03:22:29;10.30;62.10
9118;DHT22;4594;50.994;7.126;2023-11-21T03:24:55;10.30;62.20
9118;DHT22;4594;50.994;7.126;2023-11-21T03:27:20;10.30;62.30
9118;DHT22;4594;50.994;7.126;2023-11-21T03:29:48;10.30;62.40
9118;DHT22;4594;50.994;7.126;2023-11-21T03:32:14;10.40;62.70
9118;DHT22;4594;50.994;7.126;2023-11-21T03:34:58;10.40;62.70
9118;DHT22;4594;50.994;7.126;2023-11-21T03:37:24;10.40;61.20
9118;DHT22;4594;50.994;7.126;2023-11-21T03:39:50;10.50;62.50
9118;DHT22;4594;50.994;7.126;2023-11-21T03:42:16;10.40;62.30
9118;DHT22;4594;50.994;7.126;2023-11-21T03:44:42;10.50;62.40
9118;DHT22;4594;50.994;7.126;2023-11-21T03:47:08;10.50;62.50
9118;DHT22;4594;50.994;7.126;2023-11-21T03:49:33;10.50;62.40
9118;DHT22;4594;50.994;7.126;2023-11-21T03:51:59;10.50;62.40
9118;DHT22;4594;50.994;7.126;2023-11-21T03:54:24;10.60;62.40
9118;DHT22;4594;50.994;7.126;2023-11-21T03:56:50;10.60;62.40
9118;DHT22;4594;50.994;7.126;2023-11-21T03:59:17;10.60;62.30
9118;DHT22;4594;50.994;7.126;2023-11-21T04:01:43;10.50;62.20
9118;DHT22;4594;50.994;7.126;2023-11-21T04:04:08;10.60;62.30
9118;DHT22;4594;50.994;7.126;2023-11-21T04:06:34;10.60;62.30
9118;DHT22;4594;50.994;7.126;2023-11-21T04:09:01;10.60;62.30
9118;DHT22;4594;50.994;7.126;2023-11-21T04:11:27;10.60;62.30
9118;DHT22;4594;50.994;7.126;2023-11-21T04:13:55;10.60;62.20
9118;DHT22;4594;50.994;7.126;2023-11-21T04:16:21;10.60;62.10
9118;DHT22;4594;50.994;7.126;2023-11-21T04:18:46;10.60;62.00
9118;DHT22;4594;50.994;7.126;2023-11-21T04:21:12;10.60;62.10
9118;DHT22;4594;50.994;7.126;2023-11-21T04:23:38;10.70;62.60
9118;DHT22;4594;50.994;7.126;2023-11-21T04:26:05;10.60;62.00
9118;DHT22;4594;50.994;7.126;2023-11-21T04:28:31;10.60;61.90
9118;DHT22;4594;50.994;7.126;2023-11-21T04:30:56;10.60;62.00
9118;DHT22;4594;50.994;7.126;2023-11-21T04:33:22;10.70;62.20
9118;DHT22;4594;50.994;7.126;2023-11-21T04:35:48;10.60;62.10
9118;DHT22;4594;50.994;7.126;2023-11-21T04:38:14;10.60;62.20
9118;DHT22;4594;50.994;7.126;2023-11-21T04:40:39;10.60;62.20
9118;DHT22;4594;50.994;7.126;2023-11-21T04:43:05;10.60;62.10
9118;DHT22;4594;50.994;7.126;2023-11-21T04:45:31;10.60;62.00
9118;DHT22;4594;50.994;7.126;2023-11-21T04:47:56;10.60;62.10
9118;DHT22;4594;50.994;7.126;2023-11-21T04:50:22;10.70;62.20
9118;DHT22;4594;50.994;7.126;2023-11-21T04:52:48;10.60;62.20
9118;DHT22;4594;50.994;7.126;2023-11-21T04:55:13;10.60;62.20
9118;DHT22;4594;50.994;7.126;2023-11-21T04:57:40;10.60;62.20
9118;DHT22;4594;50.994;7.126;2023-11-21T05:00:08;10.60;62.10
9118;DHT22;4594;50.994;7.126;2023-11-21T05:02:35;10.70;62.10
9118;DHT22;4594;50.994;7.126;2023-11-21T05:05:01;10.60;62.00
9118;DHT22;4594;50.994;7.126;2023-11-21T05:07:27;10.70;62.00
9118;DHT22;4594;50.994;7.126;2023-11-21T05:09:57;10.70;61.80
9118;DHT22;4594;50.994;7.126;2023-11-21T05:12:24;10.60;61.60
9118;DHT22;4594;50.994;7.126;2023-11-21T05:14:50;10.70;61.50
9118;DHT22;4594;50.994;7.126;2023-11-21T05:17:16;10.60;61.30
9118;DHT22;4594;50.994;7.126;2023-11-21T05:19:42;10.60;61.20
9118;DHT22;4594;50.994;7.126;2023-11-21T05:22:10;10.60;61.20
9118;DHT22;4594;50.994;7.126;2023-11-21T05:24:37;10.60;61.40
9118;DHT22;4594;50.994;7.126;2023-11-21T05:27:04;10.50;60.80
9118;DHT22;4594;50.994;7.126;2023-11-21T05:29:30;10.60;60.80
9118;DHT22;4594;50.994;7.126;2023-11-21T05:31:56;10.50;60.60
9118;DHT22;4594;50.994;7.126;2023-11-21T05:34:22;10.50;60.50
9118;DHT22;4594;50.994;7.126;2023-11-21T05:36:50;10.50;60.60
9118;DHT22;4594;50.994;7.126;2023-11-21T05:39:16;10.40;60.70
9118;DHT22;4594;50.994;7.126;2023-11-21T05:41:44;10.50;61.00
9118;DHT22;4594;50.994;7.126;2023-11-21T05:44:11;10.40;60.90
9118;DHT22;4594;50.994;7.126;2023-11-21T05:46:37;10.40;61.00
9118;DHT22;4594;50.994;7.126;2023-11-21T05:49:03;10.40;60.90
9118;DHT22;4594;50.994;7.126;2023-11-21T05:51:29;10.40;60.80
9118;DHT22;4594;50.994;7.126;2023-11-21T05:53:54;10.40;60.80
9118;DHT22;4594;50.994;7.126;2023-11-21T05:56:20;10.40;60.90
9118;DHT22;4594;50.994;7.126;2023-11-21T05:58:46;10.40;61.00
9118;DHT22;4594;50.994;7.126;2023-11-21T06:01:11;10.30;61.00
9118;DHT22;4594;50.994;7.126;2023-11-21T06:03:38;10.40;61.40
9118;DHT22;4594;50.994;7.126;2023-11-21T06:06:04;10.30;61.60
9118;DHT22;4594;50.994;7.126;2023-11-21T06:08:30;10.40;62.00
9118;DHT22;4594;50.994;7.126;2023-11-21T06:10:56;10.40;62.20
9118;DHT22;4594;50.994;7.126;2023-11-21T06:13:22;10.40;62.50
9118;DHT22;4594;50.994;7.126;2023-11-21T06:15:50;10.40;62.60
9118;DHT22;4594;50.994;7.126;2023-11-21T06:18:16;10.50;62.70
9118;DHT22;4594;50.994;7.126;2023-11-21T06:20:45;10.50;62.70
9118;DHT22;4594;50.994;7.126;2023-11-21T06:23:11;10.50;62.70
9118;DHT22;4594;50.994;7.126;2023-11-21T06:25:37;10.50;62.70
9118;DHT22;4594;50.994;7.126;2023-11-21T06:28:03;10.40;62.70
9118;DHT22;4594;50.994;7.126;2023-11-21T06:30:29;10.60;63.00
9118;DHT22;4594;50.994;7.126;2023-11-21T06:32:55;10.60;63.30
9118;DHT22;4594;50.994;7.126;2023-11-21T06:35:21;10.60;62.90
9118;DHT22;4594;50.994;7.126;2023-11-21T06:37:47;10.60;63.00
9118;DHT22;4594;50.994;7.126;2023-11-21T06:40:14;10.70;63.10
9118;DHT22;4594;50.994;7.126;2023-11-21T06:42:40;10.70;63.00
9118;DHT22;4594;50.994;7.126;2023-11-21T06:45:07;10.80;63.00
9118;DHT22;4594;50.994;7.126;2023-11-21T06:47:36;10.70;62.80
9118;DHT22;4594;50.994;7.126;2023-11-21T06:50:03;10.70;62.80
9118;DHT22;4594;50.994;7.126;2023-11-21T06:52:29;10.70;62.90
9118;DHT22;4594;50.994;7.126;2023-11-21T06:54:55;10.80;63.10
9118;DHT22;4594;50.994;7.126;2023-11-21T06:57:23;10.80;63.10
9118;DHT22;4594;50.994;7.126;2023-11-21T06:59:49;10.80;63.00
9118;DHT22;4594;50.994;7.126;2023-11-21T07:02:16;10.80;63.20
9118;DHT22;4594;50.994;7.126;2023-11-21T07:04:47;10.80;63.30
9118;DHT22;4594;50.994;7.126;2023-11-21T07:07:13;10.80;63.10
9118;DHT22;4594;50.994;7.126;2023-11-21T07:09:39;10.90;63.50
9118;DHT22;4594;50.994;7.126;2023-11-21T07:12:05;10.90;63.50
9118;DHT22;4594;50.994;7.126;2023-11-21T07:14:34;10.90;63.50
9118;DHT22;4594;50.994;7.126;2023-11-21T07:16:59;10.90;63.50
9118;DHT22;4594;50.994;7.126;2023-11-21T07:19:25;11.00;63.80
9118;DHT22;4594;50.994;7.126;2023-11-21T07:21:51;11.00;63.80
9118;DHT22;4594;50.994;7.126;2023-11-21T07:24:17;11.00;63.90
9118;DHT22;4594;50.994;7.126;2023-11-21T07:26:43;11.00;63.90
9118;DHT22;4594;50.994;7.126;2023-11-21T07:29:08;11.10;64.10
9118;DHT22;4594;50.994;7.126;2023-11-21T07:31:34;11.10;64.10
9118;DHT22;4594;50.994;7.126;2023-11-21T07:34:00;11.10;64.10
9118;DHT22;4594;50.994;7.126;2023-11-21T07:36:26;11.20;64.30
9118;DHT22;4594;50.994;7.126;2023-11-21T07:38:52;11.20;64.30
9118;DHT22;4594;50.994;7.126;2023-11-21T07:41:18;11.20;64.40
9118;DHT22;4594;50.994;7.126;2023-11-21T07:43:45;11.30;64.50
9118;DHT22;4594;50.994;7.126;2023-11-21T07:46:11;11.30;64.50
9118;DHT22;4594;50.994;7.126;2023-11-21T07:48:39;11.30;64.60
9118;DHT22;4594;50.994;7.126;2023-11-21T07:51:05;11.30;64.50
9118;DHT22;4594;50.994;7.126;2023-11-21T07:53:35;11.40;64.70
9118;DHT22;4594;50.994;7.126;2023-11-21T07:56:07;11.40;64.70
9118;DHT22;4594;50.994;7.126;2023-11-21T07:58:35;11.40;64.10
9118;DHT22;4594;50.994;7.126;2023-11-21T08:01:02;11.50;64.60
9118;DHT22;4594;50.994;7.126;2023-11-21T08:03:30;11.50;64.70
9118;DHT22;4594;50.994;7.126;2023-11-21T08:05:59;11.50;64.80
9118;DHT22;4594;50.994;7.126;2023-11-21T08:08:25;11.60;64.80
9118;DHT22;4594;50.994;7.126;2023-11-21T08:10:52;11.60;65.20
9118;DHT22;4594;50.994;7.126;2023-11-21T08:13:28;11.60;65.40
9118;DHT22;4594;50.994;7.126;2023-11-21T08:15:56;11.70;65.20
9118;DHT22;4594;50.994;7.126;2023-11-21T08:18:27;11.70;65.60
9118;DHT22;4594;50.994;7.126;2023-11-21T08:20:54;11.90;65.90
9118;DHT22;4594;50.994;7.126;2023-11-21T08:23:20;11.80;65.90
9118;DHT22;4594;50.994;7.126;2023-11-21T08:25:50;11.90;66.10
9118;DHT22;4594;50.994;7.126;2023-11-21T08:28:17;11.90;66.10
9118;DHT22;4594;50.994;7.126;2023-11-21T08:30:43;12.00;66.30
9118;DHT22;4594;50.994;7.126;2023-11-21T08:33:09;12.00;66.30
9118;DHT22;4594;50.994;7.126;2023-11-21T08:35:37;12.10;66.40
9118;DHT22;4594;50.994;7.126;2023-11-21T08:38:03;12.20;66.60
9118;DHT22;4594;50.994;7.126;2023-11-21T08:40:29;12.20;67.10
9118;DHT22;4594;50.994;7.126;2023-11-21T08:42:56;12.20;66.80
9118;DHT22;4594;50.994;7.126;2023-11-21T08:45:24;12.30;66.90
9118;DHT22;4594;50.994;7.126;2023-11-21T08:47:51;12.30;66.80
9118;DHT22;4594;50.994;7.126;2023-11-21T08:50:17;12.40;66.90
9118;DHT22;4594;50.994;7.126;2023-11-21T08:52:44;12.40;66.60
9118;DHT22;4594;50.994;7.126;2023-11-21T08:55:11;12.50;66.40
9118;DHT22;4594;50.994;7.126;2023-11-21T08:57:38;12.50;66.40
9118;DHT22;4594;50.994;7.126;2023-11-21T09:00:09;12.60;66.40
9118;DHT22;4594;50.994;7.126;2023-11-21T09:02:45;12.60;65.80
9118;DHT22;4594;50.994;7.126;2023-11-21T09:05:11;12.60;66.30
9118;DHT22;4594;50.994;7.126;2023-11-21T09:07:40;12.60;66.10
9118;DHT22;4594;50.994;7.126;2023-11-21T09:10:07;12.70;66.10
9118;DHT22;4594;50.994;7.126;2023-11-21T09:12:34;12.70;66.10
9118;DHT22;4594;50.994;7.126;2023-11-21T09:15:03;12.70;66.10
9118;DHT22;4594;50.994;7.126;2023-11-21T09:17:30;12.90;65.90
9118;DHT22;4594;50.994;7.126;2023-11-21T09:19:56;12.80;65.80
9118;DHT22;4594;50.994;7.126;2023-11-21T09:22:22;12.80;65.70
9118;DHT22;4594;50.994;7.126;2023-11-21T09:24:50;12.80;65.70
9118;DHT22;4594;50.994;7.126;2023-11-21T09:27:16;12.90;65.60
9118;DHT22;4594;50.994;7.126;2023-11-21T09:29:43;12.90;65.40
9118;DHT22;4594;50.994;7.126;2023-11-21T09:32:09;12.90;65.30
9118;DHT22;4594;50.994;7.126;2023-11-21T09:34:38;12.90;65.20
9118;DHT22;4594;50.994;7.126;2023-11-21T09:37:04;12.90;64.90
9118;DHT22;4594;50.994;7.126;2023-11-21T09:39:35;12.90;65.10
9118;DHT22;4594;50.994;7.126;2023-11-21T09:42:21;12.90;65.30
9118;DHT22;4594;50.994;7.126;2023-11-21T09:45:28;12.90;63.50
9118;DHT22;4594;50.994;7.126;2023-11-21T09:47:59;13.00;63.60
9118;DHT22;4594;50.994;7.126;2023-11-21T09:50:26;13.00;65.60
9118;DHT22;4594;50.994;7.126;2023-11-21T09:55:44;13.00;65.00
9118;DHT22;4594;50.994;7.126;2023-11-21T09:58:12;13.10;65.70
9118;DHT22;4594;50.994;7.126;2023-11-21T10:00:45;13.00;65.70
9118;DHT22;4594;50.994;7.126;2023-11-21T10:03:13;13.10;65.40
9118;DHT22;4594;50.994;7.126;2023-11-21T10:05:41;13.00;66.00
9118;DHT22;4594;50.994;7.126;2023-11-21T10:08:10;13.10;66.10
9118;DHT22;4594;50.994;7.126;2023-11-21T10:10:38;13.10;66.20
9118;DHT22;4594;50.994;7.126;2023-11-21T10:13:12;13.20;66.50
9118;DHT22;4594;50.994;7.126;2023-11-21T10:15:42;13.20;66.40
9118;DHT22;4594;50.994;7.126;2023-11-21T10:18:14;13.20;66.60
9118;DHT22;4594;50.994;7.126;2023-11-21T10:20:41;13.30;66.80
9118;DHT22;4594;50.994;7.126;2023-11-21T10:23:08;13.40;66.90
9118;DHT22;4594;50.994;7.126;2023-11-21T10:25:36;13.30;66.60
9118;DHT22;4594;50.994;7.126;2023-11-21T10:28:04;13.40;66.60
9118;DHT22;4594;50.994;7.126;2023-11-21T10:30:37;13.40;66.30
9118;DHT22;4594;50.994;7.126;2023-11-21T10:33:05;13.40;65.50
9118;DHT22;4594;50.994;7.126;2023-11-21T10:35:45;13.40;66.00
9118;DHT22;4594;50.994;7.126;2023-11-21T10:38:13;13.50;64.40
9118;DHT22;4594;50.994;7.126;2023-11-21T10:40:40;13.50;65.90
9118;DHT22;4594;50.994;7.126;2023-11-21T10:43:10;13.40;65.50
9118;DHT22;4594;50.994;7.126;2023-11-21T10:45:38;13.50;65.60
9118;DHT22;4594;50.994;7.126;2023-11-21T10:48:06;13.50;65.50
9118;DHT22;4594;50.994;7.126;2023-11-21T10:50:41;13.60;65.40
9118;DHT22;4594;50.994;7.126;2023-11-21T10:53:07;13.50;65.30
9118;DHT22;4594;50.994;7.126;2023-11-21T10:55:34;13.60;65.30
9118;DHT22;4594;50.994;7.126;2023-11-21T10:58:02;13.50;65.10
9118;DHT22;4594;50.994;7.126;2023-11-21T11:00:30;13.60;64.90
9118;DHT22;4594;50.994;7.126;2023-11-21T11:02:57;13.50;65.00
9118;DHT22;4594;50.994;7.126;2023-11-21T11:05:25;13.50;65.00
9118;DHT22;4594;50.994;7.126;2023-11-21T11:08:05;13.60;65.00
9118;DHT22;4594;50.994;7.126;2023-11-21T11:10:33;13.50;63.30
9118;DHT22;4594;50.994;7.126;2023-11-21T11:12:59;13.50;64.90
9118;DHT22;4594;50.994;7.126;2023-11-21T11:15:26;13.60;65.10
9118;DHT22;4594;50.994;7.126;2023-11-21T11:17:53;13.70;65.40
9118;DHT22;4594;50.994;7.126;2023-11-21T11:20:27;13.70;65.40
9118;DHT22;4594;50.994;7.126;2023-11-21T11:28:31;13.60;63.10
9118;DHT22;4594;50.994;7.126;2023-11-21T11:37:04;13.60;63.60
9118;DHT22;4594;50.994;7.126;2023-11-21T11:39:40;13.70;65.40
9118;DHT22;4594;50.994;7.126;2023-11-21T11:42:15;13.60;64.00
9118;DHT22;4594;50.994;7.126;2023-11-21T11:47:25;13.70;65.70
9118;DHT22;4594;50.994;7.126;2023-11-21T11:50:03;13.80;64.00
9118;DHT22;4594;50.994;7.126;2023-11-21T11:52:39;13.70;65.60
9118;DHT22;4594;50.994;7.126;2023-11-21T11:55:08;13.70;65.80
9118;DHT22;4594;50.994;7.126;2023-11-21T11:57:44;13.80;65.80
9118;DHT22;4594;50.994;7.126;2023-11-21T12:00:21;13.90;65.80
9118;DHT22;4594;50.994;7.126;2023-11-21T12:02:52;13.80;65.00
9118;DHT22;4594;50.994;7.126;2023-11-21T12:05:20;13.80;65.40
9118;DHT22;4594;50.994;7.126;2023-11-21T12:07:49;13.90;65.70
9118;DHT22;4594;50.994;7.126;2023-11-21T12:10:28;14.00;66.10
9118;DHT22;4594;50.994;7.126;2023-11-21T12:13:03;13.90;65.80
9118;DHT22;4594;50.994;7.126;2023-11-21T12:15:33;13.90;65.70
9118;DHT22;4594;50.994;7.126;2023-11-21T12:18:00;14.00;66.20
9118;DHT22;4594;50.994;7.126;2023-11-21T12:20:27;14.00;66.30
9118;DHT22;4594;50.994;7.126;2023-11-21T12:22:55;14.00;66.30
9118;DHT22;4594;50.994;7.126;2023-11-21T12:25:26;14.00;66.10
9118;DHT22;4594;50.994;7.126;2023-11-21T12:28:00;14.10;66.20
9118;DHT22;4594;50.994;7.126;2023-11-21T12:30:28;14.10;66.30
9118;DHT22;4594;50.994;7.126;2023-11-21T12:32:57;14.20;66.30
9118;DHT22;4594;50.994;7.126;2023-11-21T12:35:26;14.20;66.60
9118;DHT22;4594;50.994;7.126;2023-11-21T12:37:54;14.30;66.30
9118;DHT22;4594;50.994;7.126;2023-11-21T12:40:22;14.30;66.40
9118;DHT22;4594;50.994;7.126;2023-11-21T12:42:52;14.30;66.40
9118;DHT22;4594;50.994;7.126;2023-11-21T12:45:24;14.40;65.60
9118;DHT22;4594;50.994;7.126;2023-11-21T12:48:04;14.30;66.00
9118;DHT22;4594;50.994;7.126;2023-11-21T12:50:34;14.40;66.20
9118;DHT22;4594;50.994;7.126;2023-11-21T12:53:11;14.50;66.10
9118;DHT22;4594;50.994;7.126;2023-11-21T12:55:38;14.40;65.90
9118;DHT22;4594;50.994;7.126;2023-11-21T12:58:08;14.50;65.90
9118;DHT22;4594;50.994;7.126;2023-11-21T13:00:40;14.50;64.60
9118;DHT22;4594;50.994;7.126;2023-11-21T13:03:12;14.50;64.90
9118;DHT22;4594;50.994;7.126;2023-11-21T13:05:42;14.50;64.50
9118;DHT22;4594;50.994;7.126;2023-11-21T13:08:13;14.50;64.90
9118;DHT22;4594;50.994;7.126;2023-11-21T13:10:40;14.50;64.50
9118;DHT22;4594;50.994;7.126;2023-11-21T13:13:12;14.50;64.20
9118;DHT22;4594;50.994;7.126;2023-11-21T13:15:50;14.40;64.00
9118;DHT22;4594;50.994;7.126;2023-11-21T13:18:26;14.50;62.80
9118;DHT22;4594;50.994;7.126;2023-11-21T13:20:53;14.40;64.50
9118;DHT22;4594;50.994;7.126;2023-11-21T13:23:20;14.50;65.10
9118;DHT22;4594;50.994;7.126;2023-11-21T13:25:46;14.50;64.70
9118;DHT22;4594;50.994;7.126;2023-11-21T13:28:13;14.50;64.50
9118;DHT22;4594;50.994;7.126;2023-11-21T13:30:41;14.50;64.60
9118;DHT22;4594;50.994;7.126;2023-11-21T13:33:08;14.50;64.60
9118;DHT22;4594;50.994;7.126;2023-11-21T13:35:37;14.50;64.30
9118;DHT22;4594;50.994;7.126;2023-11-21T13:38:08;14.50;63.80
9118;DHT22;4594;50.994;7.126;2023-11-21T13:40:39;14.50;64.00
9118;DHT22;4594;50.994;7.126;2023-11-21T13:43:10;14.50;64.00
9118;DHT22;4594;50.994;7.126;2023-11-21T13:45:37;14.50;64.10
9118;DHT22;4594;50.994;7.126;2023-11-21T13:48:05;14.50;64.10
9118;DHT22;4594;50.994;7.126;2023-11-21T13:50:36;14.50;64.10
9118;DHT22;4594;50.994;7.126;2023-11-21T13:53:03;14.50;64.00
9118;DHT22;4594;50.994;7.126;2023-11-21T13:55:44;14.50;63.90
9118;DHT22;4594;50.994;7.126;2023-11-21T13:58:11;14.50;63.60
9118;DHT22;4594;50.994;7.126;2023-11-21T14:00:38;14.50;63.70
9118;DHT22;4594;50.994;7.126;2023-11-21T14:03:23;14.50;63.40
9118;DHT22;4594;50.994;7.126;2023-11-21T14:05:58;14.40;63.10
9118;DHT22;4594;50.994;7.126;2023-11-21T14:08:26;14.40;63.20
9118;DHT22;4594;50.994;7.126;2023-11-21T14:10:54;14.40;63.10
9118;DHT22;4594;50.994;7.126;2023-11-21T14:13:25;14.30;62.80
9118;DHT22;4594;50.994;7.126;2023-11-21T14:15:51;14.30;62.80
9118;DHT22;4594;50.994;7.126;2023-11-21T14:18:23;14.30;62.80
9118;DHT22;4594;50.994;7.126;2023-11-21T14:20:59;14.30;62.90
9118;DHT22;4594;50.994;7.126;2023-11-21T14:23:25;14.20;62.90
9118;DHT22;4594;50.994;7.126;2023-11-21T14:25:51;14.20;62.80
9118;DHT22;4594;50.994;7.126;2023-11-21T14:28:17;14.20;62.80
9118;DHT22;4594;50.994;7.126;2023-11-21T14:30:45;14.20;62.90
9118;DHT22;4594;50.994;7.126;2023-11-21T14:33:12;14.20;62.90
9118;DHT22;4594;50.994;7.126;2023-11-21T14:35:38;14.20;62.90
9118;DHT22;4594;50.994;7.126;2023-11-21T14:38:04;14.20;62.90
9118;DHT22;4594;50.994;7.126;2023-11-21T14:40:33;14.10;62.80
9118;DHT22;4594;50.994;7.126;2023-11-21T14:43:02;14.10;62.20
9118;DHT22;4594;50.994;7.126;2023-11-21T14:45:34;14.20;62.90
9118;DHT22;4594;50.994;7.126;2023-11-21T14:48:00;14.00;62.70
9118;DHT22;4594;50.994;7.126;2023-11-21T14:50:33;14.00;62.70
9118;DHT22;4594;50.994;7.126;2023-11-21T14:53:10;14.00;62.60
9118;DHT22;4594;50.994;7.126;2023-11-21T14:55:39;14.00;62.70
9118;DHT22;4594;50.994;7.126;2023-11-21T14:58:17;14.00;62.80
9118;DHT22;4594;50.994;7.126;2023-11-21T15:00:53;13.90;62.40
9118;DHT22;4594;50.994;7.126;2023-11-21T15:03:26;13.90;62.50
9118;DHT22;4594;50.994;7.126;2023-11-21T15:05:59;14.00;62.70
9118;DHT22;4594;50.994;7.126;2023-11-21T15:08:44;13.80;62.70
9118;DHT22;4594;50.994;7.126;2023-11-21T15:11:11;13.80;62.80
9118;DHT22;4594;50.994;7.126;2023-11-21T15:13:41;13.80;63.00
9118;DHT22;4594;50.994;7.126;2023-11-21T15:16:08;13.70;62.90
9118;DHT22;4594;50.994;7.126;2023-11-21T15:18:37;13.70;62.90
9118;DHT22;4594;50.994;7.126;2023-11-21T15:21:03;13.80;63.10
9118;DHT22;4594;50.994;7.126;2023-11-21T15:23:29;13.70;63.10
9118;DHT22;4594;50.994;7.126;2023-11-21T15:25:57;13.70;63.30
9118;DHT22;4594;50.994;7.126;2023-11-21T15:28:23;13.70;63.30
9118;DHT22;4594;50.994;7.126;2023-11-21T15:30:50;13.60;63.20
9118;DHT22;4594;50.994;7.126;2023-11-21T15:33:17;13.60;63.30
9118;DHT22;4594;50.994;7.126;2023-11-21T15:35:43;13.60;63.20
9118;DHT22;4594;50.994;7.126;2023-11-21T15:38:09;13.50;63.00
9118;DHT22;4594;50.994;7.126;2023-11-21T15:40:34;13.50;63.10
9118;DHT22;4594;50.994;7.126;2023-11-21T15:43:00;13.60;63.30
9118;DHT22;4594;50.994;7.126;2023-11-21T15:45:28;13.50;63.20
9118;DHT22;4594;50.994;7.126;2023-11-21T15:47:54;13.50;63.30
9118;DHT22;4594;50.994;7.126;2023-11-21T15:50:21;12.90;62.70
9118;DHT22;4594;50.994;7.126;2023-11-21T15:52:47;13.50;63.40
9118;DHT22;4594;50.994;7.126;2023-11-21T15:55:13;13.50;63.20
9118;DHT22;4594;50.994;7.126;2023-11-21T15:57:39;13.50;63.10
9118;DHT22;4594;50.994;7.126;2023-11-21T16:00:05;13.40;62.90
9118;DHT22;4594;50.994;7.126;2023-11-21T16:02:37;13.40;63.00
9118;DHT22;4594;50.994;7.126;2023-11-21T16:05:04;13.40;63.00
9118;DHT22;4594;50.994;7.126;2023-11-21T16:07:31;13.40;63.00
9118;DHT22;4594;50.994;7.126;2023-11-21T16:09:57;13.40;63.20
9118;DHT22;4594;50.994;7.126;2023-11-21T16:12:23;13.40;63.10
9118;DHT22;4594;50.994;7.126;2023-11-21T16:14:49;13.40;62.90
9118;DHT22;4594;50.994;7.126;2023-11-21T16:17:15;13.40;62.90
9118;DHT22;4594;50.994;7.126;2023-11-21T16:19:43;13.30;62.70
9118;DHT22;4594;50.994;7.126;2023-11-21T16:22:09;13.30;62.70
9118;DHT22;4594;50.994;7.126;2023-11-21T16:24:36;13.30;62.80